Time;durP1;ratioP1;P1;durP2;ratioP2;P2;SDS_P1;SDS_P2;PMS_P1;PMS_P2;Temp;Humidity;BMP_temperature;BMP_pressure;BME280_temperature;BME280_humidity;BME280_pressure;Samples;Min_cycle;Max_cycle;Signal;HPM_P1;HPM_P2
2023/10/01 00:00:52;;;;;;;0.82;0.82;;;;;;;13.88;72.64;100420.66;5073079;28;20059;-68
2023/10/01 00:03:22;;;;;;;1.30;1.20;;;;;;;13.86;72.72;100414.69;5073010;28;20135;-68
2023/10/01 00:05:52;;;;;;;0.52;0.52;;;;;;;13.75;72.74;100419.00;5073268;28;20523;-69
2023/10/01 00:08:22;;;;;;;0.40;0.40;;;;;;;13.74;72.66;100417.25;5073189;28;20041;-68
2023/10/01 00:10:51;;;;;;;1.77;0.50;;;;;;;13.72;72.78;100412.16;5073149;28;20045;-69
2023/10/01 00:13:20;;;;;;;2.28;0.60;;;;;;;13.66;72.97;100409.56;5072882;28;20044;-69
2023/10/01 00:15:49;;;;;;;0.50;0.50;;;;;;;13.66;72.88;100406.16;5073165;28;20041;-69
2023/10/01 00:18:19;;;;;;;0.68;0.68;;;;;;;13.62;72.97;100414.72;5072698;28;20045;-70
2023/10/01 00:20:49;;;;;;;0.90;0.90;;;;;;;13.61;72.71;100410.44;5073083;28;20037;-71
2023/10/01 00:23:18;;;;;;;0.63;0.63;;;;;;;13.52;72.61;100410.44;5073922;28;20368;-72
2023/10/01 00:25:47;;;;;;;0.80;0.80;;;;;;;13.48;73.01;100411.31;5072755;28;20040;-68
2023/10/01 00:28:15;;;;;;;0.40;0.40;;;;;;;13.39;73.00;100407.88;5073013;28;20147;-70
2023/10/01 00:30:44;;;;;;;0.93;0.93;;;;;;;13.31;73.54;100412.19;5071595;28;20037;-68
2023/10/01 00:33:15;;;;;;;9.15;1.02;;;;;;;13.30;73.62;100410.47;5076327;28;20107;-69
2023/10/01 00:35:44;;;;;;;0.47;0.47;;;;;;;13.19;73.62;100412.19;5076531;28;20056;-72
2023/10/01 00:38:16;;;;;;;1.10;0.67;;;;;;;13.10;73.69;100407.03;5076007;28;20041;-68
2023/10/01 00:40:44;;;;;;;1.95;1.67;;;;;;;13.11;74.32;100400.19;5076698;28;20072;-70
2023/10/01 00:43:14;;;;;;;1.40;0.50;;;;;;;13.06;74.46;100400.19;5076077;28;20037;-69
2023/10/01 00:45:43;;;;;;;0.57;0.57;;;;;;;13.06;74.79;100405.31;5074701;28;20048;-69
2023/10/01 00:48:14;;;;;;;0.50;0.50;;;;;;;13.14;74.53;100402.78;5076306;28;20071;-68
2023/10/01 00:50:44;;;;;;;0.40;0.40;;;;;;;13.26;74.42;100403.63;5074897;28;20123;-71
2023/10/01 00:53:15;;;;;;;0.82;0.82;;;;;;;13.30;74.16;100407.91;5076247;28;20048;-68
2023/10/01 00:55:44;;;;;;;0.52;0.52;;;;;;;13.42;74.23;100400.19;5077002;28;20048;-70
2023/10/01 00:58:14;;;;;;;1.70;0.60;;;;;;;13.47;74.22;100400.19;5074631;28;20036;-70
2023/10/01 01:00:45;;;;;;;0.73;0.73;;;;;;;13.53;73.88;100401.91;5075729;28;20277;-68
2023/10/01 01:03:22;;;;;;;2.05;0.82;;;;;;;13.56;73.93;100401.88;5076022;28;20040;-68
2023/10/01 01:06:12;;;;;;;0.40;0.40;;;;;;;13.61;73.70;100405.31;5075984;28;20055;-68
2023/10/01 01:08:52;;;;;;;0.50;0.50;;;;;;;13.66;73.24;100395.88;5074386;28;20127;-69
2023/10/01 01:11:22;;;;;;;1.63;1.05;;;;;;;13.65;73.34;100401.91;5074411;28;20075;-70
2023/10/01 01:13:53;;;;;;;0.70;0.70;;;;;;;13.65;72.92;100404.47;5074382;28;20143;-69
2023/10/01 01:16:25;;;;;;;0.90;0.73;;;;;;;13.63;73.23;100403.63;5074644;28;20048;-70
2023/10/01 01:18:54;;;;;;;2.05;0.73;;;;;;;13.61;72.69;100401.03;5075342;28;20091;-70
2023/10/01 01:21:23;;;;;;;0.83;0.77;;;;;;;13.61;72.64;100402.72;5075624;28;20097;-70
2023/10/01 01:23:53;;;;;;;0.83;0.77;;;;;;;13.63;73.11;100401.06;5074744;28;20036;-72
2023/10/01 01:26:23;;;;;;;0.63;0.63;;;;;;;13.65;72.60;100394.19;5075393;28;20053;-71
2023/10/01 01:28:52;;;;;;;0.40;0.40;;;;;;;13.60;72.46;100398.47;5075181;28;20530;-70
2023/10/01 01:31:26;;;;;;;0.80;0.80;;;;;;;13.58;72.90;100400.19;5074108;28;20043;-69
2023/10/01 01:33:56;;;;;;;0.60;0.60;;;;;;;13.55;72.69;100402.75;5074889;28;20380;-69
2023/10/01 01:36:30;;;;;;;0.55;0.55;;;;;;;13.56;72.39;100407.00;5075370;28;20507;-70
2023/10/01 01:39:13;;;;;;;0.63;0.63;;;;;;;13.50;72.63;100396.78;5074972;28;20059;-69
2023/10/01 01:41:47;;;;;;;17.73;1.77;;;;;;;13.46;73.05;100405.34;5075176;28;20473;-69
2023/10/01 01:44:17;;;;;;;0.50;0.50;;;;;;;13.44;72.93;100402.75;5073637;28;20044;-68
2023/10/01 01:46:49;;;;;;;0.88;0.60;;;;;;;13.30;72.73;100394.22;5073953;28;20408;-69
2023/10/01 01:49:19;;;;;;;0.43;0.43;;;;;;;13.23;73.21;100408.75;5075098;28;20079;-69
2023/10/01 01:51:59;;;;;;;1.88;0.90;;;;;;;13.14;73.46;100403.63;5074730;28;20058;-70
2023/10/01 01:54:34;;;;;;;0.38;0.38;;;;;;;12.96;73.59;100398.44;5074818;28;20057;-69
2023/10/01 01:57:08;;;;;;;1.17;1.08;;;;;;;12.98;74.00;100401.84;5073631;28;20056;-70
2023/10/01 01:59:38;;;;;;;1.83;1.40;;;;;;;12.96;74.23;100395.88;5074579;28;20056;-70
2023/10/01 02:02:09;;;;;;;0.47;0.47;;;;;;;13.01;74.17;100396.75;5073768;28;20054;-70
2023/10/01 02:04:58;;;;;;;0.98;0.90;;;;;;;13.04;73.75;100399.31;5073710;28;20553;-69
2023/10/01 02:07:33;;;;;;;0.85;0.60;;;;;;;13.06;73.96;100400.19;5073420;28;20106;-71
2023/10/01 02:10:06;;;;;;;0.40;0.40;;;;;;;13.13;73.82;100401.91;5074391;28;20044;-70
2023/10/01 02:12:38;;;;;;;0.82;0.82;;;;;;;13.14;73.57;100401.06;5074589;28;20048;-70
2023/10/01 02:15:08;;;;;;;0.65;0.65;;;;;;;13.13;73.14;100398.47;5074451;28;20052;-72
2023/10/01 02:17:39;;;;;;;0.50;0.50;;;;;;;13.14;73.14;100388.25;5073190;28;20049;-70
2023/10/01 02:20:15;;;;;;;0.60;0.60;;;;;;;13.16;73.27;100394.22;5073178;28;20040;-71
2023/10/01 02:22:44;;;;;;;1.67;1.27;;;;;;;13.12;72.85;100384.84;5073040;28;20063;-70
2023/10/01 02:25:16;;;;;;;2.58;2.00;;;;;;;13.14;73.12;100388.25;5074168;28;20045;-72
2023/10/01 02:28:05;;;;;;;2.00;1.02;;;;;;;13.16;72.88;100396.78;5074436;28;20091;-68
2023/10/01 02:30:35;;;;;;;0.63;0.63;;;;;;;13.19;72.54;100398.50;5074038;28;20048;-68
2023/10/01 02:35:46;;;;;;;0.60;0.60;;;;;;;13.30;72.27;100394.22;5072857;28;20135;-72
2023/10/01 02:40:58;;;;;;;0.45;0.45;;;;;;;13.33;71.75;100399.34;5073924;28;20053;-70
2023/10/01 02:43:33;;;;;;;1.80;1.63;;;;;;;13.36;71.83;100395.06;5073820;28;20052;-70
2023/10/01 02:46:07;;;;;;;0.30;0.30;;;;;;;13.37;71.88;100391.66;5073808;28;20063;-71
2023/10/01 02:48:36;;;;;;;0.45;0.45;;;;;;;13.41;71.42;100382.25;5073793;28;20488;-69
2023/10/01 02:51:15;;;;;;;0.40;0.40;;;;;;;13.42;71.53;100379.69;5072563;28;20496;-69
2023/10/01 02:54:01;;;;;;;;;;;;;;;13.39;71.38;100384.81;5072956;28;20136;-70
2023/10/01 02:56:34;;;;;;;0.40;0.40;;;;;;;13.16;71.65;100391.66;5073979;28;19924;-69
2023/10/01 02:59:12;;;;;;;0.57;0.57;;;;;;;12.98;72.32;100386.47;5073651;28;20413;-69
2023/10/01 03:01:45;;;;;;;0.60;0.60;;;;;;;12.74;72.46;100381.34;5072529;28;20064;-70
2023/10/01 03:04:16;;;;;;;1.05;0.57;;;;;;;12.45;72.91;100383.00;5072433;28;20044;-71
2023/10/01 03:06:53;;;;;;;1.00;0.90;;;;;;;12.32;73.37;100386.34;5073941;28;20460;-71
2023/10/01 03:09:31;;;;;;;0.55;0.55;;;;;;;12.23;73.97;100387.19;5073594;28;20127;-71
2023/10/01 03:15:00;;;;;;;0.63;0.63;;;;;;;12.06;74.52;100396.47;5073692;28;20050;-71
2023/10/01 03:17:38;;;;;;;0.40;0.40;;;;;;;11.97;74.90;100399.84;5073443;28;20048;-72
2023/10/01 03:21:02;;;;;;;0.40;0.40;;;;;;;11.92;75.22;100406.66;5072391;28;20045;-70
2023/10/01 03:23:01;;;;;;;1.10;0.93;;;;;;;11.87;75.22;100403.22;5073059;28;20044;-70
2023/10/01 03:25:41;;;;;;;0.73;0.73;;;;;;;11.96;75.64;100410.06;5073798;28;20041;-71
2023/10/01 03:28:25;;;;;;;0.50;0.50;;;;;;;11.74;75.59;100400.56;5073426;28;20053;-70
2023/10/01 03:31:06;;;;;;;0.70;0.70;;;;;;;11.73;76.01;100409.97;5073553;28;20496;-71
2023/10/01 03:33:38;;;;;;;3.80;1.00;;;;;;;11.66;76.04;100399.63;5073954;28;20476;-71
2023/10/01 03:36:10;;;;;;;0.52;0.52;;;;;;;11.60;76.41;100405.56;5073320;28;20120;-71
2023/10/01 03:38:42;;;;;;;2.70;1.75;;;;;;;11.65;76.52;100406.44;5073297;28;20053;-69
2023/10/01 03:41:20;;;;;;;0.98;0.57;;;;;;;11.63;76.64;100413.25;5073291;28;20083;-71
2023/10/01 03:43:55;;;;;;;0.75;0.75;;;;;;;11.60;76.66;100412.38;5073269;28;20424;-70
2023/10/01 03:46:26;;;;;;;1.75;1.40;;;;;;;11.54;77.26;100407.22;5073186;28;20511;-71
2023/10/01 03:49:00;;;;;;;0.60;0.60;;;;;;;11.60;77.08;100408.13;5073221;28;20052;-71
2023/10/01 03:54:15;;;;;;;0.52;0.52;;;;;;;12.10;76.68;100411.84;5072835;28;20036;-71
2023/10/01 03:56:55;;;;;;;0.60;0.60;;;;;;;12.33;75.99;100408.53;5073303;28;20079;-70
2023/10/01 03:59:28;;;;;;;0.32;0.32;;;;;;;12.57;75.48;100409.47;5073064;28;20068;-70
2023/10/01 04:02:00;;;;;;;0.30;0.30;;;;;;;12.82;74.63;100419.78;5073097;28;20051;-71
2023/10/01 04:04:37;;;;;;;0.60;0.60;;;;;;;12.92;74.06;100417.25;5072997;28;20094;-71
2023/10/01 04:07:10;;;;;;;0.88;0.88;;;;;;;13.04;73.58;100427.50;5075114;28;20044;-70
2023/10/01 04:09:46;;;;;;;0.40;0.40;;;;;;;13.11;72.98;100424.13;5076757;28;20567;-70
2023/10/01 04:12:28;;;;;;;0.40;0.40;;;;;;;13.12;72.94;100425.84;5077239;28;20399;-71
2023/10/01 04:15:03;;;;;;;0.40;0.40;;;;;;;13.22;72.36;100424.16;5076662;28;20492;-70
2023/10/01 04:17:35;;;;;;;0.43;0.43;;;;;;;13.28;71.55;100431.81;5076707;28;20055;-70
2023/10/01 04:20:17;;;;;;;0.40;0.40;;;;;;;13.37;71.31;100436.94;5076700;28;20068;-70
2023/10/01 04:22:48;;;;;;;0.50;0.50;;;;;;;13.42;71.14;100430.97;5076592;28;20101;-71
2023/10/01 04:25:18;;;;;;;0.47;0.47;;;;;;;13.43;70.82;100434.41;5077028;28;20036;-71
2023/10/01 04:27:47;;;;;;;1.40;0.93;;;;;;;13.47;70.86;100435.25;5076456;28;20101;-71
2023/10/01 04:30:21;;;;;;;0.50;0.50;;;;;;;13.52;70.45;100431.81;5076889;28;20044;-70
2023/10/01 04:32:50;;;;;;;1.00;0.95;;;;;;;13.55;70.13;100436.09;5076340;28;20280;-70
2023/10/01 04:35:19;;;;;;;1.80;1.70;;;;;;;13.55;70.03;100426.69;5076265;28;20082;-70
2023/10/01 04:37:51;;;;;;;0.60;0.60;;;;;;;13.53;70.31;100422.44;5076472;28;20048;-70
2023/10/01 04:43:04;;;;;;;0.50;0.50;;;;;;;13.52;70.39;100411.31;5076242;28;20056;-70
2023/10/01 04:45:36;;;;;;;0.82;0.82;;;;;;;13.54;69.67;100416.44;5076356;28;20056;-69
2023/10/01 04:48:15;;;;;;;0.70;0.70;;;;;;;13.58;69.85;100420.72;5076095;28;20048;-72
2023/10/01 04:50:45;;;;;;;;;;;;;;;13.62;69.85;100417.28;5076663;28;20067;-68
2023/10/01 04:53:15;;;;;;;1.42;1.33;;;;;;;13.60;69.60;100424.13;5076248;28;20365;-69
2023/10/01 04:55:44;;;;;;;0.80;0.70;;;;;;;13.62;69.51;100418.16;5075911;28;20518;-68
2023/10/01 04:58:14;;;;;;;0.60;0.60;;;;;;;13.64;69.36;100425.81;5076156;28;20827;-69
2023/10/01 05:00:46;;;;;;;0.40;0.40;;;;;;;13.70;69.28;100421.53;5075653;28;20131;-68
2023/10/01 05:03:15;;;;;;;0.40;0.40;;;;;;;13.75;69.35;100434.38;5075792;28;20048;-68
2023/10/01 05:05:48;;;;;;;0.30;0.30;;;;;;;13.71;69.27;100430.09;5075829;28;20048;-69
2023/10/01 05:08:17;;;;;;;0.40;0.40;;;;;;;13.20;69.78;100442.06;5075713;28;20040;-68
2023/10/01 05:10:52;;;;;;;0.40;0.40;;;;;;;12.89;70.67;100442.84;5074402;28;20060;-70
2023/10/01 05:13:22;;;;;;;1.02;1.02;;;;;;;12.57;71.51;100457.28;5075587;28;20045;-70
2023/10/01 05:15:56;;;;;;;0.70;0.70;;;;;;;12.35;72.16;100458.91;5076076;28;20123;-69
2023/10/01 05:18:27;;;;;;;1.15;1.02;;;;;;;12.32;72.78;100471.69;5075717;28;20059;-69
2023/10/01 05:20:59;;;;;;;0.50;0.50;;;;;;;12.31;73.20;100466.56;5074642;28;20503;-69
2023/10/01 05:23:29;;;;;;;0.55;0.55;;;;;;;12.16;73.31;100463.91;5075125;28;20361;-68
2023/10/01 05:25:59;;;;;;;0.95;0.65;;;;;;;12.15;74.05;100472.44;5075199;28;20059;-72
2023/10/01 05:28:36;;;;;;;;;;;;;;;12.23;74.52;100473.34;5075672;28;20045;-69
2023/10/01 05:31:08;;;;;;;0.40;0.40;;;;;;;12.31;74.55;100475.06;5075223;28;19920;-68
2023/10/01 05:33:38;;;;;;;2.05;1.17;;;;;;;12.37;74.83;100466.56;5073600;28;20132;-68
2023/10/01 05:36:08;;;;;;;;;;;;;;;12.45;74.68;100459.78;5075259;28;20056;-69
2023/10/01 05:38:37;;;;;;;0.70;0.70;;;;;;;12.56;75.03;100463.25;5075114;28;19927;-68
2023/10/01 05:41:09;;;;;;;0.75;0.75;;;;;;;12.67;75.12;100461.56;5074332;28;20395;-70
2023/10/01 05:43:38;;;;;;;1.27;1.17;;;;;;;12.83;74.84;100460.78;5074986;28;20056;-68
2023/10/01 05:46:10;;;;;;;1.00;0.90;;;;;;;12.96;74.76;100461.63;5074999;28;20538;-70
2023/10/01 05:48:41;;;;;;;1.50;1.05;;;;;;;13.12;74.87;100472.00;5074881;28;20076;-70
2023/10/01 05:51:12;;;;;;;6.22;1.42;;;;;;;13.29;74.57;100465.16;5074829;28;20127;-69
2023/10/01 05:53:41;;;;;;;0.50;0.50;;;;;;;13.47;74.43;100463.44;5064180;28;20036;-69
2023/10/01 05:56:15;;;;;;;0.60;0.60;;;;;;;13.59;73.90;100469.44;5057254;28;20123;-68
2023/10/01 05:58:44;;;;;;;0.85;0.85;;;;;;;13.63;73.28;100457.47;5061731;28;20378;-68
2023/10/01 06:01:15;;;;;;;0.95;0.77;;;;;;;13.47;73.08;100468.56;5073933;28;20048;-69
2023/10/01 06:03:45;;;;;;;0.30;0.30;;;;;;;13.41;73.52;100480.53;5064136;28;20086;-69
2023/10/01 06:06:23;;;;;;;0.85;0.70;;;;;;;13.38;73.18;100480.56;5059571;28;20051;-67
2023/10/01 06:08:59;;;;;;;0.50;0.50;;;;;;;13.32;73.46;100477.97;5055066;28;20041;-68
2023/10/01 06:14:29;;;;;;;0.85;0.85;;;;;;;13.46;73.24;100485.66;5072161;28;20044;-68
2023/10/01 06:17:00;;;;;;;1.63;1.45;;;;;;;13.58;72.77;100484.84;5073453;28;20082;-67
2023/10/01 06:19:32;;;;;;;0.60;0.60;;;;;;;13.73;72.60;100482.25;5073513;28;20044;-69
2023/10/01 06:22:13;;;;;;;0.50;0.50;;;;;;;13.80;72.30;100484.81;5073672;28;20547;-67
2023/10/01 06:24:43;;;;;;;0.52;0.52;;;;;;;13.82;72.20;100477.13;5071629;28;20063;-67
2023/10/01 06:27:13;;;;;;;0.93;0.88;;;;;;;13.84;72.08;100481.41;5074081;28;20049;-68
2023/10/01 06:29:49;;;;;;;6.43;1.63;;;;;;;13.97;72.33;100487.34;5073245;28;20504;-68
2023/10/01 06:32:21;;;;;;;0.55;0.55;;;;;;;13.98;72.00;100483.94;5073801;28;20491;-68
2023/10/01 06:34:53;;;;;;;0.40;0.40;;;;;;;13.95;71.93;100478.81;5074102;28;20400;-69
2023/10/01 06:37:22;;;;;;;0.98;0.80;;;;;;;13.94;71.96;100484.81;5073888;28;20044;-68
2023/10/01 06:39:51;;;;;;;1.20;1.10;;;;;;;13.99;72.03;100480.50;5073897;28;20043;-65
2023/10/01 06:42:20;;;;;;;0.60;0.60;;;;;;;13.89;72.24;100479.66;5073758;28;20417;-68
2023/10/01 06:44:52;;;;;;;0.38;0.38;;;;;;;13.84;72.19;100476.28;5073170;28;20131;-70
2023/10/01 06:47:26;;;;;;;0.30;0.30;;;;;;;13.93;72.26;100485.66;5073988;28;20040;-67
2023/10/01 06:50:11;;;;;;;1.38;0.70;;;;;;;13.98;71.95;100489.09;5073993;28;20106;-69
2023/10/01 06:52:42;;;;;;;1.58;1.48;;;;;;;13.93;72.50;100490.78;5073631;28;20053;-71
2023/10/01 06:55:25;;;;;;;0.60;0.60;;;;;;;14.15;72.37;100487.34;5073770;28;20128;-68
2023/10/01 06:57:56;;;;;;;0.55;0.55;;;;;;;14.38;71.72;100503.56;5073923;28;20056;-68
2023/10/01 07:00:30;;;;;;;1.60;1.25;;;;;;;14.46;71.60;100496.69;5073581;28;20068;-69
2023/10/01 07:03:16;;;;;;;0.75;0.75;;;;;;;14.51;71.56;100492.41;5073570;28;20045;-70
2023/10/01 07:05:46;;;;;;;0.45;0.45;;;;;;;14.67;71.10;100495.75;5073636;28;20407;-69
2023/10/01 07:08:18;;;;;;;1.95;1.10;;;;;;;14.90;71.15;100495.66;5073470;28;20527;-67
2023/10/01 07:10:50;;;;;;;1.23;1.13;;;;;;;15.10;70.82;100504.09;5073566;28;20052;-68
2023/10/01 07:13:22;;;;;;;0.50;0.50;;;;;;;15.22;69.94;100504.88;5073806;28;20161;-69
2023/10/01 07:15:52;;;;;;;1.00;0.95;;;;;;;15.38;69.46;100495.34;5073428;28;20048;-68
2023/10/01 07:18:23;;;;;;;1.52;0.95;;;;;;;15.55;68.98;100508.97;5072503;28;20052;-69
2023/10/01 07:20:53;;;;;;;1.40;1.30;;;;;;;15.65;68.84;100504.59;5073316;28;20047;-70
2023/10/01 07:23:21;;;;;;;0.67;0.67;;;;;;;15.80;68.34;100507.06;5073676;28;20033;-68
2023/10/01 07:26:00;;;;;;;1.17;0.63;;;;;;;15.86;68.01;100505.28;5073373;28;20055;-68
2023/10/01 07:28:30;;;;;;;0.65;0.65;;;;;;;15.88;68.01;100521.56;5073329;28;20044;-69
2023/10/01 07:31:01;;;;;;;8.25;0.73;;;;;;;15.96;67.63;100517.19;5074107;28;20067;-67
2023/10/01 07:33:34;;;;;;;0.35;0.35;;;;;;;15.98;67.85;100515.47;5073256;28;20496;-68
2023/10/01 07:36:10;;;;;;;0.40;0.40;;;;;;;15.99;67.72;100514.59;5073391;28;20090;-69
2023/10/01 07:38:48;;;;;;;1.30;1.13;;;;;;;15.98;67.70;100504.34;5073226;28;20131;-68
2023/10/01 07:41:20;;;;;;;0.57;0.57;;;;;;;15.97;67.55;100513.78;5075771;28;20060;-68
2023/10/01 07:43:49;;;;;;;0.43;0.43;;;;;;;15.99;67.30;100516.31;5076348;28;20085;-70
2023/10/01 07:46:18;;;;;;;0.50;0.50;;;;;;;16.00;67.03;100521.44;5077250;28;20055;-68
2023/10/01 07:48:51;;;;;;;0.50;0.50;;;;;;;16.12;66.60;100517.06;5077466;28;20059;-71
2023/10/01 07:51:27;;;;;;;0.73;0.73;;;;;;;16.29;66.46;100525.47;5077116;28;20044;-69
2023/10/01 07:53:59;;;;;;;0.43;0.43;;;;;;;16.52;65.91;100518.38;5077232;28;20044;-68
2023/10/01 07:56:29;;;;;;;0.65;0.65;;;;;;;16.68;64.55;100509.59;5077242;28;20127;-67
2023/10/01 08:01:43;;;;;;;0.90;0.90;;;;;;;16.91;62.80;100505.00;5077222;28;20500;-66
2023/10/01 08:07:05;;;;;;;0.50;0.50;;;;;;;17.18;60.63;100502.03;5077754;28;20033;-68
2023/10/01 08:09:39;;;;;;;0.50;0.50;;;;;;;17.28;59.81;100503.59;5077093;28;20040;-66
2023/10/01 08:12:08;;;;;;;0.50;0.50;;;;;;;17.37;59.47;100507.78;5076696;28;20131;-66
2023/10/01 08:14:36;;;;;;;0.40;0.40;;;;;;;17.43;59.35;100499.94;5076739;28;20053;-68
2023/10/01 08:17:07;;;;;;;1.92;0.70;;;;;;;17.52;59.06;100501.53;5109672;28;20496;-66
2023/10/01 08:19:44;;;;;;;0.88;0.82;;;;;;;17.46;58.22;100509.38;5076900;28;20408;-67
2023/10/01 08:22:15;;;;;;;0.57;0.57;;;;;;;17.42;57.98;100506.81;5076443;28;20048;-68
2023/10/01 08:24:52;;;;;;;1.08;0.73;;;;;;;17.43;57.89;100511.13;5076772;28;20127;-68
2023/10/01 08:27:31;;;;;;;0.55;0.55;;;;;;;17.47;57.64;100508.50;5076641;28;20029;-67
2023/10/01 08:30:18;;;;;;;;;;;;;;;17.53;57.41;100501.53;5076963;28;20048;-68
2023/10/01 08:32:51;;;;;;;1.23;1.13;;;;;;;17.63;57.57;100500.53;5076261;28;19970;-66
2023/10/01 08:35:32;;;;;;;0.73;0.73;;;;;;;17.75;57.38;100495.16;5076645;28;20097;-67
2023/10/01 08:38:02;;;;;;;2.03;1.08;;;;;;;17.85;57.06;100496.69;5076264;28;20062;-67
2023/10/01 08:40:30;;;;;;;0.50;0.50;;;;;;;17.97;56.66;100500.81;5076174;28;20040;-66
2023/10/01 08:42:59;;;;;;;0.65;0.65;;;;;;;18.05;56.69;100499.78;5076287;28;20056;-68
2023/10/01 08:45:37;;;;;;;3.10;0.75;;;;;;;18.09;56.04;100504.00;5075860;28;20042;-66
2023/10/01 08:48:08;;;;;;;0.55;0.55;;;;;;;18.09;55.78;100500.59;5076367;28;20063;-67
2023/10/01 08:50:41;;;;;;;0.63;0.63;;;;;;;18.19;55.51;100517.59;5076033;28;20105;-67
2023/10/01 08:53:13;;;;;;;0.80;0.80;;;;;;;18.24;55.09;100515.78;5075224;28;20040;-68
2023/10/01 08:58:27;;;;;;;0.43;0.43;;;;;;;18.32;54.78;100503.59;5075796;28;20045;-67
2023/10/01 09:01:12;;;;;;;1.33;0.65;;;;;;;18.36;54.65;100499.19;5108489;28;20064;-67
2023/10/01 09:03:47;;;;;;;1.02;0.90;;;;;;;18.42;54.26;100487.03;5076118;28;20036;-67
2023/10/01 09:06:27;;;;;;;0.57;0.57;;;;;;;18.39;54.12;100489.66;5075598;28;20086;-67
2023/10/01 09:09:19;;;;;;;5.60;0.93;;;;;;;18.42;53.87;100481.84;5075657;28;20045;-68
2023/10/01 09:11:50;;;;;;;6.05;1.13;;;;;;;18.41;54.06;100500.81;5076025;28;20119;-68
2023/10/01 09:14:38;;;;;;;0.52;0.52;;;;;;;18.50;54.34;100487.75;5108219;28;20040;-67
2023/10/01 09:17:40;;;;;;;0.60;0.60;;;;;;;18.54;54.30;100484.22;5075863;28;20127;-68
2023/10/01 09:20:17;;;;;;;0.70;0.70;;;;;;;18.57;54.43;100489.31;5075752;28;20098;-67
2023/10/01 09:23:00;;;;;;;0.55;0.55;;;;;;;18.63;54.16;100494.38;5075793;28;20416;-67
2023/10/01 09:25:30;;;;;;;0.45;0.45;;;;;;;18.60;53.79;100489.25;5075677;28;20519;-67
2023/10/01 09:28:03;;;;;;;0.60;0.60;;;;;;;18.55;53.64;100496.25;5075264;28;20036;-68
2023/10/01 09:30:36;;;;;;;1.27;0.60;;;;;;;18.56;53.48;100503.16;5075322;28;20055;-68
2023/10/01 09:33:05;;;;;;;1.85;0.80;;;;;;;18.56;53.37;100497.97;5075208;28;20052;-68
2023/10/01 09:35:49;;;;;;;0.28;0.28;;;;;;;18.58;53.28;100498.78;5075197;28;20052;-68
2023/10/01 09:38:27;;;;;;;9.40;0.93;;;;;;;18.67;53.77;100496.00;5075165;28;20037;-68
2023/10/01 09:40:58;;;;;;;0.40;0.40;;;;;;;18.72;53.37;100504.53;5108055;28;20131;-67
2023/10/01 09:43:31;;;;;;;0.63;0.63;;;;;;;18.69;53.46;100504.59;5075210;28;20037;-68
2023/10/01 09:46:02;;;;;;;0.70;0.70;;;;;;;18.76;53.42;100507.06;5074893;28;20135;-68
2023/10/01 09:48:36;;;;;;;0.73;0.63;;;;;;;18.84;53.41;100503.41;5074910;28;20512;-68
2023/10/01 09:51:13;;;;;;;0.43;0.43;;;;;;;18.89;53.57;100506.75;5074774;28;20056;-69
2023/10/01 09:53:54;;;;;;;0.50;0.50;;;;;;;18.92;53.75;100500.66;5074089;28;20086;-68
2023/10/01 09:56:29;;;;;;;0.33;0.33;;;;;;;18.89;53.70;100509.34;5075151;28;20093;-68
2023/10/01 09:59:01;;;;;;;1.95;0.85;;;;;;;18.97;53.49;100510.03;5074365;28;20338;-68
2023/10/01 10:01:33;;;;;;;0.73;0.73;;;;;;;19.03;53.39;100509.03;5073934;28;20068;-67
2023/10/01 10:04:05;;;;;;;0.60;0.60;;;;;;;19.03;53.45;100499.53;5073329;28;20099;-67
2023/10/01 10:06:36;;;;;;;0.52;0.52;;;;;;;19.09;53.41;100503.75;5054401;28;20106;-69
2023/10/01 10:09:11;;;;;;;0.60;0.60;;;;;;;19.13;53.33;100500.19;5054408;28;20048;-68
2023/10/01 10:11:43;;;;;;;0.50;0.50;;;;;;;19.00;52.55;100494.47;5054624;28;20048;-67
2023/10/01 10:14:34;;;;;;;0.40;0.40;;;;;;;18.95;52.45;100500.63;5054361;28;20064;-67
2023/10/01 10:17:18;;;;;;;0.95;0.95;;;;;;;19.02;52.34;100502.19;5054558;28;20037;-67
2023/10/01 10:20:15;;;;;;;0.95;0.90;;;;;;;19.15;52.47;100493.25;5054609;28;20049;-67
2023/10/01 10:23:13;;;;;;;0.50;0.50;;;;;;;19.20;51.54;100500.03;5054502;28;20033;-66
2023/10/01 10:25:45;;;;;;;0.50;0.50;;;;;;;19.17;51.24;100500.09;5054470;28;20045;-68
2023/10/01 10:28:25;;;;;;;1.27;1.17;;;;;;;19.22;50.88;100506.00;5054201;28;20099;-67
2023/10/01 10:31:17;;;;;;;1.52;1.05;;;;;;;19.24;50.73;100499.06;5053908;28;20045;-67
2023/10/01 10:34:21;;;;;;;0.50;0.50;;;;;;;19.20;50.33;100491.41;5054281;28;20404;-69
2023/10/01 10:36:59;;;;;;;0.50;0.50;;;;;;;19.15;50.59;100482.88;5113416;27;20364;-68
2023/10/01 10:39:48;;;;;;;0.73;0.73;;;;;;;19.26;51.05;100491.28;5111698;28;20100;-68
2023/10/01 10:42:27;;;;;;;;;;;;;;;19.21;50.40;100483.63;5111760;28;20036;-68
2023/10/01 10:45:21;;;;;;;0.70;0.70;;;;;;;19.29;50.16;100475.69;5111361;28;19920;-70
2023/10/01 10:48:01;;;;;;;0.43;0.43;;;;;;;19.38;49.85;100480.66;5111256;28;20080;-68
2023/10/01 10:50:45;;;;;;;0.60;0.60;;;;;;;19.41;49.64;100480.59;5111581;28;20036;-68
2023/10/01 10:53:19;;;;;;;0.60;0.60;;;;;;;19.36;49.36;100479.84;5111132;28;20051;-68
2023/10/01 10:55:56;;;;;;;0.95;0.75;;;;;;;19.44;49.72;100477.06;5111475;28;20039;-69
2023/10/01 10:58:26;;;;;;;1.73;1.33;;;;;;;19.47;49.57;100475.25;5111072;28;20036;-68
2023/10/01 11:00:55;;;;;;;;;;;;;;;19.49;49.70;100472.63;5111394;28;20109;-66
2023/10/01 11:03:40;;;;;;;0.57;0.57;;;;;;;19.67;49.81;100480.81;5111001;28;19927;-68
2023/10/01 11:06:21;;;;;;;0.40;0.40;;;;;;;19.72;49.80;100471.19;5110791;28;20490;-67
2023/10/01 11:08:53;;;;;;;0.50;0.50;;;;;;;19.79;49.70;100480.50;5110909;28;20519;-68
2023/10/01 11:11:23;;;;;;;0.40;0.40;;;;;;;19.82;49.65;100477.00;5110804;28;20099;-67
2023/10/01 11:14:16;;;;;;;0.57;0.57;;;;;;;19.88;49.93;100472.50;5109655;28;20445;-68
2023/10/01 11:16:47;;;;;;;0.40;0.40;;;;;;;20.02;49.89;100469.53;5111003;28;20132;-69
2023/10/01 11:19:18;;;;;;;0.73;0.73;;;;;;;20.01;49.87;100476.44;5110955;28;20059;-67
2023/10/01 11:21:58;;;;;;;0.40;0.40;;;;;;;20.22;49.57;100469.00;5111050;28;20126;-67
2023/10/01 11:24:32;;;;;;;0.57;0.57;;;;;;;20.33;49.27;100465.25;5110619;28;20052;-68
2023/10/01 11:27:19;;;;;;;0.80;0.80;;;;;;;20.38;48.97;100459.94;5110613;28;20101;-68
2023/10/01 11:30:00;;;;;;;0.55;0.55;;;;;;;20.51;48.40;100456.09;5110435;28;20065;-67
2023/10/01 11:32:57;;;;;;;0.63;0.63;;;;;;;20.67;48.02;100449.56;5110461;28;20044;-68
2023/10/01 11:35:34;;;;;;;0.40;0.40;;;;;;;20.74;47.54;100451.09;5110267;28;20055;-67
2023/10/01 11:38:13;;;;;;;0.50;0.50;;;;;;;20.70;47.77;100444.28;5110227;28;20052;-69
2023/10/01 11:43:27;;;;;;;0.93;0.88;;;;;;;20.71;47.85;100452.03;5110275;28;20059;-66
2023/10/01 11:46:20;;;;;;;0.40;0.40;;;;;;;20.60;48.23;100438.53;5108997;28;20116;-67
2023/10/01 11:49:00;;;;;;;0.70;0.70;;;;;;;20.52;48.20;100439.63;5096654;28;20071;-69
2023/10/01 11:51:32;;;;;;;1.13;0.80;;;;;;;20.51;48.03;100437.94;5096491;28;20119;-67
2023/10/01 11:56:45;;;;;;;0.55;0.55;;;;;;;20.88;47.82;100441.13;5096481;28;20043;-69
2023/10/01 11:59:19;;;;;;;0.40;0.40;;;;;;;21.14;47.94;100435.19;5096553;28;20397;-68
2023/10/01 12:01:51;;;;;;;0.73;0.73;;;;;;;21.24;47.53;100441.75;5096372;28;20048;-68
2023/10/01 12:04:43;;;;;;;1.27;0.57;;;;;;;21.26;47.15;100440.81;5096151;28;20498;-68
2023/10/01 12:07:18;;;;;;;0.63;0.63;;;;;;;21.47;47.37;100438.44;5096450;28;20051;-67
2023/10/01 12:09:51;;;;;;;0.68;0.68;;;;;;;21.72;47.59;100434.09;5096170;28;20097;-68
2023/10/01 12:12:25;;;;;;;0.40;0.40;;;;;;;22.04;46.97;100431.25;5096020;28;20040;-67
2023/10/01 12:14:55;;;;;;;0.50;0.50;;;;;;;22.43;46.85;100421.16;5096122;28;20608;-68
2023/10/01 12:17:24;;;;;;;0.40;0.40;;;;;;;22.65;46.12;100420.31;5095757;28;20046;-69
2023/10/01 12:20:00;;;;;;;0.60;0.60;;;;;;;22.50;44.83;100420.88;5096497;28;20046;-68
2023/10/01 12:22:31;;;;;;;0.93;0.93;;;;;;;22.54;44.87;100417.25;5096183;28;20474;-69
2023/10/01 12:25:01;;;;;;;0.40;0.40;;;;;;;22.61;44.71;100413.53;5095898;28;20127;-69
2023/10/01 12:27:38;;;;;;;0.63;0.63;;;;;;;22.61;44.35;100413.53;5095867;28;20044;-69
2023/10/01 12:30:11;;;;;;;0.40;0.40;;;;;;;22.41;44.28;100410.78;5096078;28;20036;-68